createdAt,value
2017-11-25T00:00:29.019Z,251.83
2017-11-25T00:02:56.669Z,212.17
2017-11-25T00:05:24.276Z,216.97
2017-11-25T00:07:51.880Z,311.33
2017-11-25T00:10:19.539Z,297.87
2017-11-25T00:12:47.140Z,98.03
2017-11-25T00:15:14.876Z,128.40
2017-11-25T00:17:42.640Z,259.37
2017-11-25T00:20:10.268Z,207.23
2017-11-25T00:22:37.923Z,232.27
2017-11-25T00:25:05.666Z,218.90
2017-11-25T00:27:33.334Z,154.77
2017-11-25T00:30:00.995Z,134.17
2017-11-25T00:32:28.668Z,200.87
2017-11-25T00:34:56.319Z,179.87
2017-11-25T00:37:23.924Z,195.70
2017-11-25T00:39:51.644Z,78.67
2017-11-25T00:42:19.311Z,105.00
2017-11-25T00:44:46.913Z,75.53
2017-11-25T00:47:14.560Z,76.93
2017-11-25T00:49:42.159Z,51.20
2017-11-25T00:52:09.823Z,49.07
2017-11-25T00:54:37.544Z,53.57
2017-11-25T00:57:05.259Z,78.67
2017-11-25T00:59:32.928Z,76.57
2017-11-25T01:02:00.652Z,72.77
2017-11-25T01:04:28.264Z,84.30
2017-11-25T01:06:55.885Z,74.93
2017-11-25T01:09:23.602Z,55.47
2017-11-25T01:11:51.208Z,70.83
2017-11-25T01:14:18.868Z,62.73
2017-11-25T01:16:46.524Z,55.57
2017-11-25T01:19:14.195Z,55.30
2017-11-25T01:21:41.864Z,55.43
2017-11-25T01:24:09.511Z,55.83
2017-11-25T01:26:37.181Z,70.17
2017-11-25T01:29:04.846Z,54.50
2017-11-25T01:31:32.519Z,59.30
2017-11-25T01:34:00.196Z,53.00
2017-11-25T01:36:27.823Z,60.67
2017-11-25T01:38:55.549Z,61.23
2017-11-25T01:41:23.153Z,47.47
2017-11-25T01:43:50.807Z,49.57
2017-11-25T01:46:18.528Z,64.53
2017-11-25T01:48:46.197Z,85.60
2017-11-25T01:51:13.921Z,53.03
2017-11-25T01:53:41.611Z,65.97
2017-11-25T01:56:09.348Z,49.27
2017-11-25T01:58:37.008Z,92.27
2017-11-25T02:01:04.672Z,81.03
2017-11-25T02:03:32.283Z,68.20
2017-11-25T02:05:59.949Z,88.83
2017-11-25T02:08:27.671Z,63.17
2017-11-25T02:10:55.267Z,49.70
2017-11-25T02:13:22.991Z,101.80
2017-11-25T02:15:50.696Z,38.37
2017-11-25T02:18:18.300Z,72.03
2017-11-25T02:20:45.964Z,56.53
2017-11-25T02:23:13.632Z,115.00
2017-11-25T02:25:41.271Z,88.87
2017-11-25T02:28:08.949Z,67.30
2017-11-25T02:30:36.619Z,107.83
2017-11-25T02:33:04.300Z,65.13
2017-11-25T02:35:31.990Z,76.00
2017-11-25T02:37:59.660Z,105.93
2017-11-25T02:40:27.310Z,111.00
2017-11-25T02:42:54.954Z,64.63
2017-11-25T02:45:22.720Z,82.83
2017-11-25T02:47:50.437Z,91.67
2017-11-25T02:50:18.043Z,84.50
2017-11-25T02:52:45.704Z,62.73
2017-11-25T02:55:13.325Z,82.77
2017-11-25T02:57:41.000Z,98.37
2017-11-25T03:00:08.760Z,86.33
2017-11-25T03:02:36.356Z,62.27
2017-11-25T03:05:03.959Z,52.63
2017-11-25T03:07:31.637Z,95.20
2017-11-25T03:09:59.295Z,64.13
2017-11-25T03:12:26.904Z,60.43
2017-11-25T03:14:54.560Z,54.90
2017-11-25T03:17:22.236Z,82.03
2017-11-25T03:19:49.905Z,124.97
2017-11-25T03:22:17.581Z,167.00
2017-11-25T03:24:45.240Z,177.03
2017-11-25T03:27:12.896Z,186.10
2017-11-25T03:29:40.610Z,249.47
2017-11-25T03:32:08.271Z,238.10
2017-11-25T03:34:35.937Z,189.43
2017-11-25T03:37:03.592Z,230.90
2017-11-25T03:39:31.255Z,131.43
2017-11-25T03:41:58.921Z,188.80
2017-11-25T03:44:26.582Z,226.33
2017-11-25T03:46:54.249Z,195.83
2017-11-25T03:49:21.852Z,125.57
2017-11-25T03:51:49.575Z,207.13
2017-11-25T03:54:17.304Z,198.03
2017-11-25T03:56:45.046Z,185.87
2017-11-25T03:59:12.796Z,123.50
2017-11-25T04:01:40.413Z,130.33
2017-11-25T04:04:08.020Z,208.43
2017-11-25T04:06:35.671Z,197.30
2017-11-25T04:09:03.336Z,232.87
2017-11-25T04:11:30.952Z,151.93
2017-11-25T04:13:58.607Z,116.80
2017-11-25T04:16:26.212Z,118.83
2017-11-25T04:18:53.888Z,108.80
2017-11-25T04:21:21.568Z,127.07
2017-11-25T04:23:49.197Z,181.50
2017-11-25T04:26:16.869Z,102.63
2017-11-25T04:28:44.531Z,61.07
2017-11-25T04:31:12.204Z,90.17
2017-11-25T04:33:39.881Z,77.20
2017-11-25T04:36:07.596Z,86.57
2017-11-25T04:38:35.198Z,92.13
2017-11-25T04:41:02.809Z,80.63
2017-11-25T04:43:30.496Z,60.10
2017-11-25T04:45:58.177Z,96.97
2017-11-25T04:48:25.853Z,168.57
2017-11-25T04:50:53.575Z,120.00
2017-11-25T04:53:21.293Z,250.60
2017-11-25T04:55:48.964Z,55.63
2017-11-25T04:58:16.632Z,102.17
2017-11-25T05:00:44.376Z,72.57
2017-11-25T05:03:11.989Z,84.53
2017-11-25T05:05:39.711Z,58.83
2017-11-25T05:08:07.389Z,66.67
2017-11-25T05:10:35.053Z,42.80
2017-11-25T05:13:02.733Z,57.77
2017-11-25T05:15:30.344Z,95.03
2017-11-25T05:17:57.997Z,51.17
2017-11-25T05:20:25.660Z,95.67
2017-11-25T05:22:53.264Z,97.03
2017-11-25T05:25:20.882Z,90.53
2017-11-25T05:27:48.553Z,73.10
2017-11-25T05:30:16.176Z,80.57
2017-11-25T05:32:43.885Z,72.70
2017-11-25T05:35:11.602Z,92.60
2017-11-25T05:37:39.203Z,52.20
2017-11-25T05:40:06.872Z,80.30
2017-11-25T05:42:34.601Z,46.57
2017-11-25T05:45:02.282Z,58.20
2017-11-25T05:47:29.889Z,74.80
2017-11-25T05:49:57.548Z,65.27
2017-11-25T05:52:25.218Z,60.70
2017-11-25T05:54:52.885Z,76.50
2017-11-25T05:57:20.561Z,52.27
2017-11-25T05:59:48.182Z,61.93
2017-11-25T06:02:15.804Z,62.50
2017-11-25T06:04:43.477Z,76.97
2017-11-25T06:07:11.144Z,43.60
2017-11-25T06:09:38.750Z,38.90
2017-11-25T06:12:06.469Z,82.23
2017-11-25T06:14:34.155Z,94.20
2017-11-25T06:17:01.765Z,64.53
2017-11-25T06:19:29.426Z,53.77
2017-11-25T06:21:57.089Z,58.40
2017-11-25T06:24:24.758Z,68.97
2017-11-25T06:26:52.496Z,82.63
2017-11-25T06:29:20.105Z,81.87
2017-11-25T06:31:47.725Z,64.60
2017-11-25T06:34:15.402Z,61.20
2017-11-25T06:36:43.069Z,80.33
2017-11-25T06:39:10.752Z,114.63
2017-11-25T06:41:38.516Z,54.93
2017-11-25T06:44:06.182Z,68.97
2017-11-25T06:46:33.912Z,94.13
2017-11-25T06:49:01.609Z,134.53
2017-11-25T06:51:29.213Z,66.43
2017-11-25T06:53:56.883Z,55.10
2017-11-25T06:56:24.550Z,94.87
2017-11-25T06:58:52.161Z,55.97
2017-11-25T07:01:19.773Z,72.50
2017-11-25T07:03:47.494Z,84.77
2017-11-25T07:06:15.165Z,81.30
2017-11-25T07:08:42.781Z,54.27
2017-11-25T07:11:10.464Z,77.30
2017-11-25T07:13:38.087Z,84.00
2017-11-25T07:16:05.700Z,123.93
2017-11-25T07:18:33.372Z,109.00
2017-11-25T07:21:00.992Z,208.23
2017-11-25T07:23:28.600Z,133.70
2017-11-25T07:25:56.261Z,126.57
2017-11-25T07:28:23.933Z,103.00
2017-11-25T07:30:51.548Z,149.80
2017-11-25T07:33:19.226Z,112.17
2017-11-25T07:35:46.841Z,85.10
2017-11-25T07:38:14.512Z,115.00
2017-11-25T07:40:42.174Z,59.60
2017-11-25T07:43:09.848Z,101.87
2017-11-25T07:45:37.465Z,55.80
2017-11-25T07:48:05.137Z,159.13
2017-11-25T07:50:32.744Z,99.40
2017-11-25T07:53:00.413Z,110.37
2017-11-25T07:55:28.102Z,94.30
2017-11-25T07:57:55.837Z,74.57
2017-11-25T08:00:23.525Z,120.07
2017-11-25T08:02:51.194Z,75.10
2017-11-25T08:05:18.805Z,38.70
2017-11-25T08:07:46.500Z,94.80
2017-11-25T08:10:14.192Z,71.40
2017-11-25T08:12:41.804Z,69.23
2017-11-25T08:15:09.419Z,67.37
2017-11-25T08:17:37.222Z,68.27
2017-11-25T08:20:04.848Z,118.90
2017-11-25T08:22:32.516Z,110.67
2017-11-25T08:25:00.241Z,94.97
2017-11-25T08:27:27.912Z,99.20
2017-11-25T08:29:55.598Z,102.97
2017-11-25T08:32:23.276Z,152.00
2017-11-25T08:34:50.889Z,166.53
2017-11-25T08:37:18.510Z,91.30
2017-11-25T08:39:46.244Z,56.93
2017-11-25T08:42:13.853Z,83.20
2017-11-25T08:44:41.527Z,149.00
2017-11-25T08:47:09.261Z,197.43
2017-11-25T08:49:36.872Z,144.67
2017-11-25T08:52:04.541Z,211.53
2017-11-25T08:54:32.252Z,127.43
2017-11-25T08:56:59.932Z,201.37
2017-11-25T08:59:27.599Z,194.80
2017-11-25T09:01:55.253Z,147.50
2017-11-25T09:04:22.868Z,134.33
2017-11-25T09:06:50.476Z,106.97
2017-11-25T09:09:18.189Z,96.63
2017-11-25T09:11:45.800Z,159.97
2017-11-25T09:14:13.421Z,186.93
2017-11-25T09:16:41.076Z,125.10
2017-11-25T09:19:08.741Z,182.57
2017-11-25T09:21:36.364Z,124.87
2017-11-25T09:24:04.027Z,87.87
2017-11-25T09:26:31.644Z,116.07
2017-11-25T09:28:59.279Z,122.57
2017-11-25T09:31:26.997Z,152.87
2017-11-25T09:33:54.668Z,96.20
2017-11-25T09:36:22.336Z,125.33
2017-11-25T09:38:49.999Z,164.53
2017-11-25T09:41:17.680Z,112.03
2017-11-25T09:43:45.295Z,115.13
2017-11-25T09:46:12.964Z,135.87
2017-11-25T09:48:40.640Z,111.33
2017-11-25T09:51:08.262Z,118.63
2017-11-25T09:53:35.920Z,89.33
2017-11-25T09:56:03.533Z,125.77
2017-11-25T09:58:31.136Z,115.60
2017-11-25T10:00:58.800Z,154.50
2017-11-25T10:03:26.476Z,89.13
2017-11-25T10:05:54.096Z,97.00
2017-11-25T10:08:21.747Z,88.27
2017-11-25T10:10:49.415Z,125.00
2017-11-25T10:13:17.099Z,99.87
2017-11-25T10:15:44.752Z,103.27
2017-11-25T10:18:12.418Z,82.27
2017-11-25T10:20:40.101Z,84.40
2017-11-25T10:23:07.829Z,120.53
2017-11-25T10:25:35.444Z,106.40
2017-11-25T10:28:03.141Z,82.00
2017-11-25T10:30:30.835Z,90.27
2017-11-25T10:32:58.475Z,82.63
2017-11-25T10:35:26.148Z,92.97
2017-11-25T10:37:53.937Z,71.83
2017-11-25T10:40:21.546Z,118.10
2017-11-25T10:42:49.152Z,133.87
2017-11-25T10:45:16.877Z,126.33
2017-11-25T10:47:44.601Z,111.60
2017-11-25T10:50:12.276Z,110.23
2017-11-25T10:52:39.984Z,115.97
2017-11-25T10:55:07.652Z,99.30
2017-11-25T10:57:35.261Z,109.93
2017-11-25T11:00:02.941Z,97.43
2017-11-25T11:02:30.559Z,87.90
2017-11-25T11:04:58.170Z,97.57
2017-11-25T11:07:25.884Z,108.17
2017-11-25T11:09:53.553Z,107.30
2017-11-25T11:12:21.238Z,91.60
2017-11-25T11:14:48.903Z,103.30
2017-11-25T11:17:16.576Z,80.50
2017-11-25T11:19:44.176Z,82.20
2017-11-25T11:22:11.834Z,105.57
2017-11-25T11:24:39.444Z,97.30
2017-11-25T11:27:07.055Z,98.97
2017-11-25T11:29:34.771Z,173.43
2017-11-25T11:32:02.389Z,165.57
2017-11-25T11:34:30.073Z,130.33
2017-11-25T11:36:57.744Z,135.57
2017-11-25T11:39:25.408Z,122.10
2017-11-25T11:41:53.040Z,128.83
2017-11-25T11:44:20.748Z,135.30
2017-11-25T11:46:48.360Z,122.70
2017-11-25T11:49:15.977Z,121.37
2017-11-25T11:51:43.632Z,144.40
2017-11-25T11:54:11.368Z,118.70
2017-11-25T11:56:39.034Z,131.00
2017-11-25T11:59:06.685Z,106.23
2017-11-25T12:01:34.348Z,124.43
2017-11-25T12:04:01.970Z,119.73
2017-11-25T12:06:29.668Z,145.77
2017-11-25T12:08:57.309Z,105.87
2017-11-25T12:11:25.001Z,113.63
2017-11-25T12:13:52.750Z,94.47
2017-11-25T12:16:20.362Z,104.03
2017-11-25T12:18:47.989Z,111.23
2017-11-25T12:21:15.668Z,113.90
2017-11-25T12:23:43.340Z,120.33
2017-11-25T12:26:10.939Z,114.33
2017-11-25T12:28:38.620Z,120.77
2017-11-25T12:31:06.243Z,135.57
2017-11-25T12:33:33.910Z,137.70
2017-11-25T12:36:01.688Z,133.67
2017-11-25T12:38:29.369Z,163.10
2017-11-25T12:40:57.093Z,121.80
2017-11-25T12:43:24.828Z,97.63
2017-11-25T12:45:52.443Z,127.30
2017-11-25T12:48:20.069Z,135.17
2017-11-25T12:50:47.717Z,118.80
2017-11-25T12:53:15.406Z,112.93
2017-11-25T12:55:43.021Z,133.90
2017-11-25T12:58:10.696Z,106.43
2017-11-25T13:00:38.310Z,98.80
2017-11-25T13:03:05.917Z,84.77
2017-11-25T13:05:33.568Z,112.43
2017-11-25T13:08:01.181Z,118.93
2017-11-25T13:10:28.847Z,116.93
2017-11-25T13:12:56.507Z,96.07
2017-11-25T13:15:24.113Z,108.23
2017-11-25T13:17:51.723Z,82.77
2017-11-25T13:20:19.382Z,89.37
2017-11-25T13:22:46.984Z,89.63
2017-11-25T13:25:14.596Z,94.20
2017-11-25T13:27:42.259Z,116.90
2017-11-25T13:30:09.921Z,95.60
2017-11-25T13:32:37.584Z,109.53
2017-11-25T13:35:05.277Z,99.83
2017-11-25T13:37:32.886Z,99.47
2017-11-25T13:40:00.510Z,113.97
2017-11-25T13:42:28.239Z,104.50
2017-11-25T13:44:55.917Z,119.77
2017-11-25T13:47:23.556Z,104.63
2017-11-25T13:49:51.220Z,100.00
2017-11-25T13:52:18.848Z,112.43
2017-11-25T13:54:46.513Z,104.10
2017-11-25T13:57:14.193Z,114.50
2017-11-25T13:59:41.805Z,117.47
2017-11-25T14:02:09.481Z,124.93
2017-11-25T14:04:37.213Z,133.70
2017-11-25T14:07:04.892Z,119.57
2017-11-25T14:09:32.511Z,108.17
2017-11-25T14:12:00.172Z,100.50
2017-11-25T14:14:27.852Z,129.67
2017-11-25T14:16:55.469Z,121.60
2017-11-25T14:19:23.152Z,137.87
2017-11-25T14:21:50.773Z,117.23
2017-11-25T14:24:18.388Z,121.53
2017-11-25T14:26:46.115Z,111.27
2017-11-25T14:29:13.744Z,142.90
2017-11-25T14:31:41.352Z,136.17
2017-11-25T14:34:09.064Z,148.57
2017-11-25T14:36:36.669Z,110.67
2017-11-25T14:39:04.440Z,135.40
2017-11-25T14:41:32.104Z,125.00
2017-11-25T14:43:59.717Z,141.03
2017-11-25T14:46:27.401Z,123.40
2017-11-25T14:48:55.140Z,116.33
2017-11-25T14:51:22.748Z,123.07
2017-11-25T14:53:50.361Z,114.93
2017-11-25T14:56:18.041Z,142.77
2017-11-25T14:58:45.661Z,131.47
2017-11-25T15:01:13.318Z,119.53
2017-11-25T15:03:41.040Z,135.97
2017-11-25T15:06:08.648Z,108.10
2017-11-25T15:08:36.312Z,123.43
2017-11-25T15:11:04.046Z,129.23
2017-11-25T15:13:31.653Z,140.23
2017-11-25T15:15:59.284Z,132.27
2017-11-25T15:18:26.949Z,129.47
2017-11-25T15:20:54.648Z,121.53
2017-11-25T15:23:22.265Z,150.20
2017-11-25T15:25:49.985Z,161.83
2017-11-25T15:28:17.665Z,121.47
2017-11-25T15:30:45.288Z,117.47
2017-11-25T15:33:13.012Z,153.30
2017-11-25T15:35:40.676Z,163.30
2017-11-25T15:38:08.293Z,117.70
2017-11-25T15:40:35.987Z,126.77
2017-11-25T15:43:03.644Z,139.30
2017-11-25T15:45:31.288Z,102.50
2017-11-25T15:47:59.013Z,157.90
2017-11-25T15:50:26.630Z,160.80
2017-11-25T15:52:54.260Z,127.73
2017-11-25T15:55:21.942Z,128.77
2017-11-25T15:57:49.641Z,132.17
2017-11-25T16:00:17.361Z,166.30
2017-11-25T16:02:45.100Z,137.70
2017-11-25T16:05:12.720Z,135.93
2017-11-25T16:07:40.397Z,125.27
2017-11-25T16:10:08.057Z,141.90
2017-11-25T16:12:35.689Z,131.43
2017-11-25T16:15:03.413Z,147.10
2017-11-25T16:17:31.073Z,181.00
2017-11-25T16:19:58.712Z,128.20
2017-11-25T16:22:26.385Z,146.90
2017-11-25T16:24:54.116Z,137.57
2017-11-25T16:27:21.727Z,192.40
2017-11-25T16:29:49.408Z,111.80
2017-11-25T16:32:17.135Z,180.80
2017-11-25T16:34:44.748Z,143.50
2017-11-25T16:37:12.372Z,119.97
2017-11-25T16:39:40.028Z,144.13
2017-11-25T16:42:08.531Z,202.63
2017-11-25T16:44:36.205Z,133.20
2017-11-25T16:47:03.859Z,266.27
2017-11-25T16:49:31.571Z,173.30
2017-11-25T16:51:59.255Z,117.53
2017-11-25T16:54:26.919Z,296.93
2017-11-25T16:56:54.528Z,135.27
2017-11-25T16:59:23.022Z,108.40
2017-11-25T17:01:50.688Z,122.57
2017-11-25T17:04:18.301Z,105.20
2017-11-25T17:06:46.259Z,184.00
2017-11-25T17:09:13.976Z,163.37
2017-11-25T17:11:41.581Z,180.50
2017-11-25T17:14:09.261Z,99.17
2017-11-25T17:16:36.960Z,218.03
2017-11-25T17:19:04.572Z,125.77
2017-11-25T17:21:32.184Z,143.77
2017-11-25T17:23:59.856Z,163.93
2017-11-25T17:26:27.464Z,206.40
2017-11-25T17:28:55.079Z,231.43
2017-11-25T17:31:22.744Z,154.70
2017-11-25T17:33:50.352Z,153.17
2017-11-25T17:36:18.085Z,205.43
2017-11-25T17:38:45.741Z,165.00
2017-11-25T17:41:13.356Z,167.73
2017-11-25T17:43:41.020Z,211.50
2017-11-25T17:46:08.696Z,234.40
2017-11-25T17:48:36.363Z,235.97
2017-11-25T17:51:03.979Z,174.87
2017-11-25T17:53:31.653Z,171.57
2017-11-25T17:55:59.268Z,159.70
2017-11-25T17:58:26.940Z,92.63
2017-11-25T18:00:54.607Z,233.97
2017-11-25T18:03:22.280Z,348.47
2017-11-25T18:05:49.895Z,204.03
2017-11-25T18:08:17.557Z,151.77
2017-11-25T18:10:45.170Z,284.73
2017-11-25T18:13:12.840Z,227.53
2017-11-25T18:15:40.555Z,235.33
2017-11-25T18:18:08.221Z,201.83
2017-11-25T18:20:35.833Z,205.30
2017-11-25T18:23:03.493Z,163.07
2017-11-25T18:25:31.161Z,143.67
2017-11-25T18:27:58.880Z,211.37
2017-11-25T18:30:26.745Z,169.00
2017-11-25T18:32:54.349Z,195.77
2017-11-25T18:35:22.031Z,163.27
2017-11-25T18:37:49.746Z,195.40
2017-11-25T18:40:17.487Z,291.50
2017-11-25T18:42:45.170Z,155.20
2017-11-25T18:45:12.891Z,254.27
2017-11-25T18:47:40.626Z,164.43
2017-11-25T18:50:08.245Z,111.13
2017-11-25T18:52:35.908Z,144.40
2017-11-25T18:55:03.521Z,164.53
2017-11-25T18:57:31.130Z,189.17
2017-11-25T18:59:58.868Z,191.43
2017-11-25T19:02:26.532Z,210.70
2017-11-25T19:04:54.145Z,169.13
2017-11-25T19:07:21.813Z,222.57
2017-11-25T19:09:49.433Z,165.97
2017-11-25T19:12:17.036Z,176.90
2017-11-25T19:14:44.723Z,148.20
2017-11-25T19:17:12.398Z,156.83
2017-11-25T19:19:40.065Z,186.60
2017-11-25T19:22:07.777Z,170.40
2017-11-25T19:24:35.384Z,191.30
2017-11-25T19:27:03.000Z,160.73
2017-11-25T19:29:30.672Z,206.57
2017-11-25T19:31:58.346Z,222.90
2017-11-25T19:34:26.023Z,191.37
2017-11-25T19:36:53.680Z,209.93
2017-11-25T19:39:21.291Z,194.23
2017-11-25T19:41:48.958Z,202.10
2017-11-25T19:44:16.687Z,195.47
2017-11-25T19:46:44.372Z,175.27
2017-11-25T19:49:11.993Z,194.60
2017-11-25T19:51:39.687Z,207.70
2017-11-25T19:54:07.349Z,233.20
2017-11-25T19:56:35.031Z,200.20
2017-11-25T19:59:02.687Z,196.67
2017-11-25T20:01:30.299Z,211.47
2017-11-25T20:03:57.912Z,233.03
2017-11-25T20:06:25.584Z,238.43
2017-11-25T20:08:53.209Z,292.50
2017-11-25T20:11:20.825Z,226.70
2017-11-25T20:13:48.559Z,221.30
2017-11-25T20:16:16.225Z,182.27
2017-11-25T20:18:43.905Z,241.83
2017-11-25T20:21:11.618Z,174.57
2017-11-25T20:23:39.232Z,167.73
2017-11-25T20:26:06.843Z,216.87
2017-11-25T20:28:34.518Z,142.00
2017-11-25T20:31:02.151Z,217.17
2017-11-25T20:33:29.764Z,203.37
2017-11-25T20:35:57.416Z,222.37
2017-11-25T20:38:25.028Z,242.43
2017-11-25T20:40:52.705Z,277.37
2017-11-25T20:43:20.393Z,423.90
2017-11-25T20:45:48.071Z,196.40
2017-11-25T20:48:15.787Z,213.40
2017-11-25T20:50:43.439Z,172.20
2017-11-25T20:53:11.052Z,167.87
2017-11-25T20:55:38.720Z,140.83
2017-11-25T20:58:06.395Z,122.70
2017-11-25T21:00:34.068Z,156.93
2017-11-25T21:03:01.748Z,305.47
2017-11-25T21:05:29.481Z,246.00
2017-11-25T21:07:57.088Z,176.57
2017-11-25T21:10:24.763Z,186.07
2017-11-25T21:12:52.445Z,211.20
2017-11-25T21:15:20.059Z,253.60
2017-11-25T21:17:47.713Z,250.10
2017-11-25T21:20:15.368Z,176.77
2017-11-25T21:22:42.991Z,168.57
2017-11-25T21:25:10.614Z,185.67
2017-11-25T21:27:38.280Z,220.50
2017-11-25T21:30:05.984Z,208.57
2017-11-25T21:32:33.592Z,207.67
2017-11-25T21:35:01.322Z,248.50
2017-11-25T21:37:28.950Z,282.20
2017-11-25T21:39:56.560Z,257.07
2017-11-25T21:42:24.284Z,366.40
2017-11-25T21:44:51.895Z,284.90
2017-11-25T21:47:19.570Z,254.43
2017-11-25T21:49:47.276Z,305.43
2017-11-25T21:52:14.989Z,331.57
2017-11-25T21:54:42.628Z,345.73
2017-11-25T21:57:10.368Z,320.73
2017-11-25T21:59:38.001Z,319.83
2017-11-25T22:02:05.678Z,302.70
2017-11-25T22:04:33.350Z,386.03
2017-11-25T22:07:00.965Z,231.10
2017-11-25T22:09:28.645Z,295.20
2017-11-25T22:11:56.309Z,345.93
2017-11-25T22:14:23.932Z,182.10
2017-11-25T22:16:51.565Z,177.47
2017-11-25T22:19:19.230Z,342.90
2017-11-25T22:21:46.849Z,273.93
2017-11-25T22:24:14.523Z,217.07
2017-11-25T22:26:42.192Z,294.47
2017-11-25T22:29:09.865Z,312.50
2017-11-25T22:31:37.485Z,141.40
2017-11-25T22:34:05.198Z,161.77
2017-11-25T22:36:32.871Z,195.30
2017-11-25T22:39:00.481Z,135.67
2017-11-25T22:41:28.161Z,95.13
2017-11-25T22:43:55.768Z,92.90
2017-11-25T22:46:23.432Z,104.87
2017-11-25T22:48:51.162Z,187.17
2017-11-25T22:51:18.776Z,156.77
2017-11-25T22:53:46.468Z,136.80
2017-11-25T22:56:14.157Z,116.73
2017-11-25T22:58:41.763Z,193.47
2017-11-25T23:01:09.552Z,181.43
2017-11-25T23:03:37.264Z,177.97
2017-11-25T23:06:10.661Z,154.30
2017-11-25T23:08:38.319Z,150.60
2017-11-25T23:11:05.933Z,285.43
2017-11-25T23:13:33.537Z,218.27
2017-11-25T23:16:01.265Z,177.93
2017-11-25T23:18:28.876Z,166.43
2017-11-25T23:20:56.546Z,253.90
2017-11-25T23:23:24.276Z,151.00
2017-11-25T23:25:51.894Z,156.77
2017-11-25T23:28:19.502Z,168.00
2017-11-25T23:30:47.165Z,205.33
2017-11-25T23:33:14.785Z,148.47
2017-11-25T23:35:42.401Z,141.53
2017-11-25T23:38:10.129Z,114.60
2017-11-25T23:40:37.749Z,190.07
2017-11-25T23:43:05.364Z,166.57
2017-11-25T23:45:33.040Z,114.37
2017-11-25T23:48:00.655Z,184.13
2017-11-25T23:50:28.269Z,157.63
2017-11-25T23:52:55.988Z,125.30
2017-11-25T23:55:23.661Z,144.80
2017-11-25T23:57:51.339Z,150.20
